Time;durP1;ratioP1;P1;durP2;ratioP2;P2;SDS_P1;SDS_P2;PMS_P1;PMS_P2;Temp;Humidity;BMP_temperature;BMP_pressure;BME280_temperature;BME280_humidity;BME280_pressure;Samples;Min_cycle;Max_cycle;Signal;HPM_P1;HPM_P2
2022/10/31 00:00:53;;;;;;;;;;;11.00;99.90;;;;;;6136265;23;20247;-81
2022/10/31 00:03:26;;;;;;;;;;;10.90;99.90;;;;;;6136031;23;19970;-79
2022/10/31 00:05:52;;;;;;;;;;;11.00;99.90;;;;;;6135350;23;19920;-80
2022/10/31 00:08:18;;;;;;;;;;;11.00;99.90;;;;;;6136272;23;20327;-79
2022/10/31 00:10:44;;;;;;;;;;;11.00;99.90;;;;;;6136093;23;19924;-80
2022/10/31 00:13:10;;;;;;;;;;;11.00;99.90;;;;;;6135798;23;19923;-82
2022/10/31 00:15:36;;;;;;;;;;;11.00;99.90;;;;;;6135892;23;19920;-76
2022/10/31 00:18:03;;;;;;;;;;;11.00;99.90;;;;;;6135351;23;19927;-77
2022/10/31 00:20:28;;;;;;;;;;;11.10;99.90;;;;;;6135939;23;19998;-78
2022/10/31 00:22:57;;;;;;;;;;;11.10;99.90;;;;;;6135685;23;19917;-77
2022/10/31 00:25:22;;;;;;;;;;;11.10;99.90;;;;;;6135895;23;19927;-77
2022/10/31 00:27:48;;;;;;;;;;;11.20;99.90;;;;;;6135664;23;20284;-77
2022/10/31 00:30:14;;;;;;;;;;;10.90;99.90;;;;;;6135989;23;19983;-78
2022/10/31 00:32:39;;;;;;;;;;;11.00;99.90;;;;;;6135994;23;19923;-78
2022/10/31 00:35:05;;;;;;;;;;;11.00;99.90;;;;;;6134831;23;19916;-78
2022/10/31 00:37:31;;;;;;;;;;;11.00;99.90;;;;;;6135784;23;20276;-77
2022/10/31 00:39:56;;;;;;;;;;;11.00;99.90;;;;;;6135471;23;19924;-78
2022/10/31 00:42:22;;;;;;;;;;;11.00;99.90;;;;;;6135368;23;19923;-77
2022/10/31 00:44:48;;;;;;;;;;;11.00;99.90;;;;;;6135455;23;20323;-78
2022/10/31 00:47:13;;;;;;;;;;;11.00;99.90;;;;;;6135593;23;19951;-79
2022/10/31 00:49:39;;;;;;;;;;;11.00;99.90;;;;;;6135878;23;19917;-77
2022/10/31 00:52:05;;;;;;;;;;;11.00;99.90;;;;;;6135708;23;19916;-78
2022/10/31 00:54:30;;;;;;;;;;;11.00;99.90;;;;;;6135666;23;19916;-77
2022/10/31 00:56:56;;;;;;;;;;;11.00;99.90;;;;;;6159681;23;19920;-77
2022/10/31 00:59:22;;;;;;;;;;;11.00;99.90;;;;;;6135272;23;19920;-78
2022/10/31 01:01:48;;;;;;;;;;;11.00;99.90;;;;;;6135284;23;19923;-77
2022/10/31 01:04:13;;;;;;;;;;;11.00;99.90;;;;;;6135656;23;19916;-78
2022/10/31 01:06:39;;;;;;;;;;;11.00;99.90;;;;;;6135088;23;19927;-77
2022/10/31 01:09:05;;;;;;;;;;;11.00;99.90;;;;;;6135232;23;19917;-77
2022/10/31 01:11:31;;;;;;;;;;;11.00;99.90;;;;;;6135578;23;19944;-78
2022/10/31 01:13:56;;;;;;;;;;;11.00;99.90;;;;;;6134453;23;19916;-78
2022/10/31 01:16:24;;;;;;;;;;;11.00;99.90;;;;;;6134825;23;19966;-78
2022/10/31 01:18:50;;;;;;;;;;;11.00;99.90;;;;;;6135499;23;19958;-79
2022/10/31 01:21:21;;;;;;;;;;;11.00;99.90;;;;;;6135649;23;19923;-78
2022/10/31 01:23:50;;;;;;;;;;;11.00;99.90;;;;;;6135852;23;20337;-78
2022/10/31 01:26:21;;;;;;;;;;;11.00;99.90;;;;;;6134476;23;20342;-80
2022/10/31 01:28:51;;;;;;;;;;;10.90;99.90;;;;;;6135288;23;19952;-77
2022/10/31 01:31:18;;;;;;;;;;;10.90;99.90;;;;;;6135122;23;19916;-78
2022/10/31 01:33:44;;;;;;;;;;;10.90;99.90;;;;;;6135159;23;20228;-79
2022/10/31 01:36:11;;;;;;;;;;;10.80;99.90;;;;;;6135468;23;19955;-78
2022/10/31 01:38:39;;;;;;;;;;;10.80;99.90;;;;;;6135371;23;19920;-78
2022/10/31 01:41:05;;;;;;;;;;;10.80;99.90;;;;;;6135292;23;19916;-79
2022/10/31 01:43:49;;;;;;;;;;;10.80;99.90;;;;;;6135388;23;20362;-78
2022/10/31 01:46:16;;;;;;;;;;;10.70;99.90;;;;;;6135309;23;19920;-78
2022/10/31 01:48:42;;;;;;;;;;;10.80;99.90;;;;;;6135299;23;19920;-79
2022/10/31 01:51:11;;;;;;;;;;;10.80;99.90;;;;;;6135387;23;20243;-78
2022/10/31 01:53:36;;;;;;;;;;;10.90;99.90;;;;;;6159274;23;20456;-77
2022/10/31 01:56:02;;;;;;;;;;;10.90;99.90;;;;;;6135389;23;19920;-78
2022/10/31 01:58:29;;;;;;;;;;;10.90;99.90;;;;;;6135009;23;19975;-78
2022/10/31 02:00:56;;;;;;;;;;;10.80;99.90;;;;;;6135337;23;19916;-80
2022/10/31 02:03:25;;;;;;;;;;;10.70;99.90;;;;;;6135165;23;20350;-78
2022/10/31 02:05:53;;;;;;;;;;;10.70;99.90;;;;;;6110690;23;19920;-80
2022/10/31 02:08:26;;;;;;;;;;;10.60;99.90;;;;;;6135287;23;19927;-80
2022/10/31 02:10:55;;;;;;;;;;;10.60;99.90;;;;;;6135878;23;19920;-79
2022/10/31 02:13:24;;;;;;;;;;;10.60;99.90;;;;;;6137175;23;19916;-78
2022/10/31 02:15:52;;;;;;;;;;;10.60;99.90;;;;;;6160333;23;19924;-78
2022/10/31 02:18:18;;;;;;;;;;;10.60;99.90;;;;;;6165550;23;19932;-79
2022/10/31 02:21:04;;;;;;;;;;;10.60;99.90;;;;;;6150113;23;19924;-80
2022/10/31 02:23:45;;;;;;;;;;;10.60;99.90;;;;;;6064059;23;19924;-78
2022/10/31 02:26:34;;;;;;;;;;;10.60;99.90;;;;;;6154855;23;19928;-80
2022/10/31 02:29:12;;;;;;;;;;;10.50;99.90;;;;;;6146103;23;19904;-78
2022/10/31 02:31:38;;;;;;;;;;;10.50;99.90;;;;;;6165148;23;19936;-80
2022/10/31 02:34:13;;;;;;;;;;;10.50;99.90;;;;;;6159343;23;19995;-78
2022/10/31 02:36:42;;;;;;;;;;;10.60;99.90;;;;;;6136807;23;19916;-80
2022/10/31 02:39:14;;;;;;;;;;;10.60;99.90;;;;;;6161597;23;19924;-79
2022/10/31 02:42:01;;;;;;;;;;;10.50;99.90;;;;;;6137386;23;20344;-79
2022/10/31 02:44:30;;;;;;;;;;;10.50;99.90;;;;;;6135897;23;19916;-80
2022/10/31 02:47:11;;;;;;;;;;;10.50;99.90;;;;;;6136034;23;19971;-80
2022/10/31 02:49:40;;;;;;;;;;;10.60;99.90;;;;;;6135765;23;19920;-80
2022/10/31 02:52:19;;;;;;;;;;;10.50;99.90;;;;;;6136423;23;19923;-78
2022/10/31 02:54:46;;;;;;;;;;;10.50;99.90;;;;;;6136788;23;20354;-79
2022/10/31 02:57:15;;;;;;;;;;;10.50;99.90;;;;;;6136902;23;20047;-79
2022/10/31 02:59:44;;;;;;;;;;;10.20;99.90;;;;;;6136222;23;19916;-79
2022/10/31 03:02:29;;;;;;;;;;;10.50;99.90;;;;;;6135821;23;19917;-79
2022/10/31 03:05:07;;;;;;;;;;;10.40;99.90;;;;;;6135398;23;19928;-79
2022/10/31 03:07:41;;;;;;;;;;;10.40;99.90;;;;;;6136086;23;19931;-80
2022/10/31 03:10:26;;;;;;;;;;;10.40;99.90;;;;;;6161495;23;20282;-80
2022/10/31 03:13:00;;;;;;;;;;;10.40;99.90;;;;;;6136513;23;19952;-79
2022/10/31 03:15:29;;;;;;;;;;;10.30;99.90;;;;;;6161559;23;19920;-79
2022/10/31 03:17:57;;;;;;;;;;;10.30;99.90;;;;;;6136647;23;19931;-80
2022/10/31 03:20:33;;;;;;;;;;;10.30;99.90;;;;;;6136693;23;20283;-80
2022/10/31 03:23:00;;;;;;;;;;;10.30;99.90;;;;;;6135948;23;19916;-80
2022/10/31 03:25:26;;;;;;;;;;;10.30;99.90;;;;;;6136261;23;20323;-80
2022/10/31 03:27:53;;;;;;;;;;;10.30;99.90;;;;;;6136357;23;19920;-80
2022/10/31 03:30:20;;;;;;;;;;;10.20;99.90;;;;;;6136695;23;20244;-80
2022/10/31 03:32:51;;;;;;;;;;;10.30;99.90;;;;;;6136012;23;19931;-80
2022/10/31 03:35:18;;;;;;;;;;;10.30;99.90;;;;;;6135279;23;19916;-80
2022/10/31 03:37:44;;;;;;;;;;;10.30;99.90;;;;;;6160942;23;19916;-79
2022/10/31 03:40:12;;;;;;;;;;;10.20;99.90;;;;;;6161104;23;19916;-79
2022/10/31 03:42:40;;;;;;;;;;;10.20;99.90;;;;;;6136191;23;19916;-79
2022/10/31 03:45:14;;;;;;;;;;;10.20;99.90;;;;;;6136293;23;19920;-80
2022/10/31 03:47:42;;;;;;;;;;;10.20;99.90;;;;;;6136315;23;19987;-80
2022/10/31 03:50:08;;;;;;;;;;;10.30;99.90;;;;;;6136472;23;19917;-78
2022/10/31 03:52:42;;;;;;;;;;;10.20;99.90;;;;;;6136823;23;19917;-80
2022/10/31 03:55:10;;;;;;;;;;;10.30;99.90;;;;;;6136156;23;20343;-80
2022/10/31 03:57:43;;;;;;;;;;;10.30;99.90;;;;;;6136110;23;19966;-79
2022/10/31 04:00:11;;;;;;;;;;;10.40;99.90;;;;;;6136363;23;20043;-79
2022/10/31 04:02:38;;;;;;;;;;;10.30;99.90;;;;;;6136195;23;19920;-79
2022/10/31 04:05:05;;;;;;;;;;;10.20;99.90;;;;;;6136017;23;20003;-80
2022/10/31 04:07:34;;;;;;;;;;;10.20;99.90;;;;;;6135364;23;19920;-79
2022/10/31 04:10:01;;;;;;;;;;;10.30;99.90;;;;;;6135851;23;19916;-79
2022/10/31 04:12:28;;;;;;;;;;;10.20;99.90;;;;;;6135796;23;19923;-80
2022/10/31 04:14:54;;;;;;;;;;;10.20;99.90;;;;;;6135836;23;19995;-79
2022/10/31 04:17:22;;;;;;;;;;;10.20;99.90;;;;;;6135885;23;19917;-80
2022/10/31 04:19:48;;;;;;;;;;;10.50;99.90;;;;;;6135974;23;19947;-79
2022/10/31 04:22:14;;;;;;;;;;;10.30;99.90;;;;;;6135919;23;20295;-80
2022/10/31 04:24:40;;;;;;;;;;;10.30;99.90;;;;;;6135655;23;19921;-79
2022/10/31 04:27:06;;;;;;;;;;;10.50;99.90;;;;;;6135958;23;19923;-80
2022/10/31 04:29:32;;;;;;;;;;;10.10;99.90;;;;;;6160503;23;19958;-79
2022/10/31 04:31:57;;;;;;;;;;;10.10;99.90;;;;;;6136113;23;19916;-80
2022/10/31 04:34:23;;;;;;;;;;;10.10;99.90;;;;;;6135098;23;19924;-79
2022/10/31 04:36:49;;;;;;;;;;;10.00;99.90;;;;;;6135005;23;19954;-80
2022/10/31 04:39:14;;;;;;;;;;;9.90;99.90;;;;;;6135998;23;19985;-80
2022/10/31 04:41:40;;;;;;;;;;;9.90;99.90;;;;;;6135818;23;19920;-79
2022/10/31 04:44:06;;;;;;;;;;;10.00;99.90;;;;;;6135912;23;19916;-79
2022/10/31 04:46:31;;;;;;;;;;;9.80;99.90;;;;;;6135571;23;20293;-79
2022/10/31 04:48:59;;;;;;;;;;;10.00;99.90;;;;;;6135730;23;19920;-78
2022/10/31 04:51:25;;;;;;;;;;;9.70;99.90;;;;;;6135709;23;19923;-79
2022/10/31 04:53:51;;;;;;;;;;;9.80;99.90;;;;;;6135666;23;19916;-79
2022/10/31 04:56:16;;;;;;;;;;;9.70;99.90;;;;;;6135849;23;19916;-80
2022/10/31 04:58:42;;;;;;;;;;;9.80;99.90;;;;;;6135290;23;19927;-79
2022/10/31 05:01:08;;;;;;;;;;;9.70;99.90;;;;;;6135756;23;19995;-79
2022/10/31 05:03:33;;;;;;;;;;;10.00;99.90;;;;;;6135243;23;19916;-79
2022/10/31 05:05:59;;;;;;;;;;;9.70;99.90;;;;;;6134970;23;19921;-78
2022/10/31 05:08:27;;;;;;;;;;;9.60;99.90;;;;;;6135950;23;20002;-78
2022/10/31 05:10:53;;;;;;;;;;;9.30;99.90;;;;;;6135748;23;19917;-77
2022/10/31 05:13:18;;;;;;;;;;;9.40;99.90;;;;;;6134932;23;20381;-79
2022/10/31 05:15:44;;;;;;;;;;;9.40;99.90;;;;;;6135581;23;19970;-78
2022/10/31 05:18:10;;;;;;;;;;;9.40;99.90;;;;;;6135545;23;20362;-79
2022/10/31 05:20:36;;;;;;;;;;;9.40;99.90;;;;;;6135207;23;19955;-81
2022/10/31 05:23:20;;;;;;;;;;;9.20;99.90;;;;;;6134933;23;19986;-86
2022/10/31 05:25:45;;;;;;;;;;;9.40;99.90;;;;;;6099713;23;19917;-80
2022/10/31 05:28:23;;;;;;;;;;;9.50;99.90;;;;;;6099695;23;20256;-84
2022/10/31 05:30:54;;;;;;;;;;;9.50;99.90;;;;;;6072774;23;19917;-81
2022/10/31 05:33:53;;;;;;;;;;;9.70;99.90;;;;;;6101828;23;19917;-82
2022/10/31 05:36:28;;;;;;;;;;;9.50;99.90;;;;;;6076437;23;19924;-78
2022/10/31 05:38:53;;;;;;;;;;;9.50;99.90;;;;;;6099765;23;19917;-80
2022/10/31 05:41:19;;;;;;;;;;;9.50;99.90;;;;;;6099876;23;19917;-79
2022/10/31 05:43:45;;;;;;;;;;;9.40;99.90;;;;;;6099654;23;19917;-80
2022/10/31 05:46:11;;;;;;;;;;;9.40;99.90;;;;;;6075280;23;19980;-80
2022/10/31 05:48:36;;;;;;;;;;;9.50;99.90;;;;;;6074828;23;19972;-81
2022/10/31 05:51:02;;;;;;;;;;;9.50;99.90;;;;;;6123419;23;19921;-80
2022/10/31 05:53:28;;;;;;;;;;;9.40;99.90;;;;;;6099023;23;19917;-80
2022/10/31 05:55:53;;;;;;;;;;;9.70;99.90;;;;;;6110233;23;20235;-80
2022/10/31 05:58:21;;;;;;;;;;;9.40;99.90;;;;;;6137324;23;20284;-80
2022/10/31 06:00:47;;;;;;;;;;;9.40;99.90;;;;;;6137586;23;19916;-81
2022/10/31 06:03:13;;;;;;;;;;;9.30;99.90;;;;;;6138013;23;20004;-81
2022/10/31 06:05:38;;;;;;;;;;;9.30;99.90;;;;;;6137810;23;19916;-80
2022/10/31 06:08:04;;;;;;;;;;;9.20;99.90;;;;;;6137008;23;19971;-80
2022/10/31 06:10:32;;;;;;;;;;;9.20;99.90;;;;;;6136891;23;20253;-80
2022/10/31 06:12:58;;;;;;;;;;;9.20;99.90;;;;;;6137167;23;19923;-80
2022/10/31 06:15:24;;;;;;;;;;;9.10;99.90;;;;;;6136949;23;20251;-81
2022/10/31 06:17:59;;;;;;;;;;;9.10;99.90;;;;;;6136783;23;20331;-80
2022/10/31 06:20:25;;;;;;;;;;;9.10;99.90;;;;;;6136869;23;19962;-80
2022/10/31 06:22:50;;;;;;;;;;;9.10;99.90;;;;;;6137288;23;19947;-79
2022/10/31 06:25:16;;;;;;;;;;;9.20;99.90;;;;;;6136191;23;19920;-80
2022/10/31 06:27:42;;;;;;;;;;;9.20;99.90;;;;;;6137088;23;19920;-80
2022/10/31 06:30:08;;;;;;;;;;;9.30;99.90;;;;;;6136819;23;20389;-79
2022/10/31 06:32:33;;;;;;;;;;;9.30;99.90;;;;;;6136923;23;20301;-78
2022/10/31 06:34:59;;;;;;;;;;;9.30;99.90;;;;;;6137075;23;20323;-80
2022/10/31 06:37:25;;;;;;;;;;;9.30;99.90;;;;;;6137000;23;19925;-78
2022/10/31 06:39:50;;;;;;;;;;;9.30;99.90;;;;;;6136951;23;19916;-80
2022/10/31 06:42:16;;;;;;;;;;;9.30;99.90;;;;;;6136975;23;19916;-79
2022/10/31 06:44:42;;;;;;;;;;;9.20;99.90;;;;;;6136398;23;20011;-80
2022/10/31 06:47:07;;;;;;;;;;;9.20;99.90;;;;;;6136936;23;20331;-80
2022/10/31 06:49:33;;;;;;;;;;;9.20;99.90;;;;;;6136792;23;19916;-79
2022/10/31 06:51:58;;;;;;;;;;;9.20;99.90;;;;;;6137099;23;19958;-79
2022/10/31 06:54:24;;;;;;;;;;;9.30;99.90;;;;;;6136676;23;19959;-80
2022/10/31 06:56:50;;;;;;;;;;;9.40;99.90;;;;;;6143981;23;19939;-80
2022/10/31 06:59:19;;;;;;;;;;;9.10;99.90;;;;;;6139832;23;19923;-80
2022/10/31 07:01:44;;;;;;;;;;;9.30;99.90;;;;;;6147272;23;19987;-78
2022/10/31 07:04:10;;;;;;;;;;;9.30;99.90;;;;;;6155976;23;19916;-80
2022/10/31 07:06:36;;;;;;;;;;;9.30;99.90;;;;;;6164426;23;20006;-78
2022/10/31 07:09:01;;;;;;;;;;;9.20;99.90;;;;;;6164476;23;19923;-79
2022/10/31 07:11:27;;;;;;;;;;;9.40;99.90;;;;;;6137532;23;19916;-78
2022/10/31 07:13:53;;;;;;;;;;;9.40;99.90;;;;;;6136666;23;20039;-79
2022/10/31 07:16:18;;;;;;;;;;;9.40;99.90;;;;;;6136534;23;20243;-79
2022/10/31 07:18:44;;;;;;;;;;;9.40;99.90;;;;;;6136557;23;19948;-80
2022/10/31 07:21:10;;;;;;;;;;;9.40;99.90;;;;;;6137129;23;19917;-80
2022/10/31 07:23:35;;;;;;;;;;;9.50;99.90;;;;;;6137137;23;20320;-80
2022/10/31 07:26:01;;;;;;;;;;;9.20;99.90;;;;;;6136945;23;19916;-80
2022/10/31 07:28:29;;;;;;;;;;;9.50;99.90;;;;;;6136779;23;20351;-79
2022/10/31 07:30:56;;;;;;;;;;;9.60;99.90;;;;;;6161644;23;19983;-79
2022/10/31 07:33:22;;;;;;;;;;;9.70;99.90;;;;;;6160838;23;19920;-78
2022/10/31 07:35:48;;;;;;;;;;;9.80;99.90;;;;;;6160553;23;19952;-79
2022/10/31 07:38:14;;;;;;;;;;;9.80;99.90;;;;;;6136599;23;19923;-79
2022/10/31 07:40:43;;;;;;;;;;;9.90;99.90;;;;;;6136146;23;19916;-79
2022/10/31 07:43:10;;;;;;;;;;;9.80;99.90;;;;;;6136488;23;20055;-79
2022/10/31 07:45:36;;;;;;;;;;;9.90;99.90;;;;;;6136140;23;20039;-79
2022/10/31 07:48:05;;;;;;;;;;;9.80;99.90;;;;;;6136075;23;19928;-79
2022/10/31 07:50:34;;;;;;;;;;;9.90;99.90;;;;;;6136346;23;19916;-79
2022/10/31 07:53:00;;;;;;;;;;;10.00;99.90;;;;;;6136181;23;20319;-79
2022/10/31 07:55:26;;;;;;;;;;;10.00;99.90;;;;;;6136324;23;19956;-79
2022/10/31 07:57:55;;;;;;;;;;;10.00;99.90;;;;;;6136158;23;19920;-80
2022/10/31 08:00:21;;;;;;;;;;;10.10;99.90;;;;;;6136203;23;19995;-80
2022/10/31 08:02:47;;;;;;;;;;;10.20;99.90;;;;;;6136244;23;19943;-79
2022/10/31 08:05:12;;;;;;;;;;;10.40;99.90;;;;;;6136199;23;19916;-79
2022/10/31 08:07:38;;;;;;;;;;;10.50;99.90;;;;;;6155376;23;19968;-78
2022/10/31 08:10:04;;;;;;;;;;;10.70;99.90;;;;;;6135533;23;19964;-79
2022/10/31 08:12:30;;;;;;;;;;;10.70;99.90;;;;;;6160559;23;19916;-77
2022/10/31 08:14:55;;;;;;;;;;;10.90;99.90;;;;;;6160745;23;19922;-79
2022/10/31 08:17:21;;;;;;;;;;;10.90;99.90;;;;;;6160675;23;19924;-79
2022/10/31 08:19:46;;;;;;;;;;;11.00;99.90;;;;;;6135860;23;19998;-79
2022/10/31 08:22:12;;;;;;;;;;;11.00;99.90;;;;;;6135828;23;19987;-79
2022/10/31 08:24:37;;;;;;;;;;;11.10;99.90;;;;;;6135907;23;19923;-79
2022/10/31 08:27:03;;;;;;;;;;;11.20;99.90;;;;;;6136182;23;19923;-79
2022/10/31 08:29:29;;;;;;;;;;;11.30;99.90;;;;;;6135924;23;19916;-79
2022/10/31 08:31:54;;;;;;;;;;;11.40;99.90;;;;;;6136105;23;19916;-79
2022/10/31 08:34:20;;;;;;;;;;;11.60;99.90;;;;;;6136261;23;19951;-79
2022/10/31 08:36:46;;;;;;;;;;;11.60;99.90;;;;;;6135957;23;19924;-78
2022/10/31 08:39:14;;;;;;;;;;;11.80;99.90;;;;;;6136742;23;19916;-80
2022/10/31 08:41:50;;;;;;;;;;;11.90;99.90;;;;;;6138069;23;19916;-78
2022/10/31 08:44:42;;;;;;;;;;;12.00;99.90;;;;;;6135906;23;19916;-80
2022/10/31 08:47:07;;;;;;;;;;;12.10;99.90;;;;;;6080654;23;19921;-80
2022/10/31 08:49:38;;;;;;;;;;;12.30;99.90;;;;;;6135824;23;19951;-78
2022/10/31 08:52:16;;;;;;;;;;;12.40;99.90;;;;;;6160401;23;19951;-82
2022/10/31 08:54:45;;;;;;;;;;;12.50;99.90;;;;;;6136249;23;20331;-80
2022/10/31 08:57:14;;;;;;;;;;;12.60;99.90;;;;;;6136085;23;20288;-80
2022/10/31 08:59:39;;;;;;;;;;;12.70;99.90;;;;;;6135988;23;19923;-78
2022/10/31 09:02:05;;;;;;;;;;;12.60;99.90;;;;;;6135703;23;19916;-79
2022/10/31 09:04:30;;;;;;;;;;;12.70;99.90;;;;;;6136072;23;19923;-78
2022/10/31 09:06:56;;;;;;;;;;;12.80;99.90;;;;;;6130364;23;20324;-79
2022/10/31 09:09:27;;;;;;;;;;;12.90;99.90;;;;;;6129953;23;19927;-81
2022/10/31 09:11:53;;;;;;;;;;;12.90;99.90;;;;;;6130635;23;19924;-79
2022/10/31 09:31:48;;;;;;;;;;;13.80;99.90;;;;;;5898304;24;20312;-80
2022/10/31 09:37:53;;;;;;;;;;;14.20;99.90;;;;;;5829488;24;19920;-79
2022/10/31 09:40:18;;;;;;;;;;;14.10;99.90;;;;;;6029051;23;20299;-74
2022/10/31 09:42:44;;;;;;;;;;;14.20;99.90;;;;;;6074005;23;19963;-75
2022/10/31 09:45:26;;;;;;;;;;;14.30;99.90;;;;;;6074364;23;19920;-75
2022/10/31 10:05:24;;;;;;;;;;;14.40;99.90;;;;;;5955278;24;19998;-77
2022/10/31 10:08:11;;;;;;;;;;;14.40;99.90;;;;;;5924943;24;20334;-79
2022/10/31 10:10:57;;;;;;;;;;;14.30;99.90;;;;;;5983410;23;20281;-77
2022/10/31 10:24:10;;;;;;;;;;;14.10;99.90;;;;;;5979518;24;19955;-77
2022/10/31 10:38:04;;;;;;;;;;;14.40;99.90;;;;;;5954494;24;19926;-78
2022/10/31 10:40:44;;;;;;;;;;;14.50;99.90;;;;;;5930409;24;19967;-77
2022/10/31 11:58:52;;;;;;;;;;;15.50;99.90;;;;;;6174820;23;19920;31
2022/10/31 13:53:50;;;;;;;;;;;;;;;;;;;;;
2022/10/31 14:46:17;;;;;;;;;;;14.80;99.90;;;;;;6037439;23;19921;-83
2022/10/31 14:55:49;;;;;;;;;;;14.70;99.90;;;;;;5953257;24;19943;-78
2022/10/31 14:58:29;;;;;;;;;;;14.60;99.90;;;;;;5947493;23;19957;-80
2022/10/31 15:03:51;;;;;;;;;;;14.60;99.90;;;;;;6089322;23;19921;-76
2022/10/31 15:06:19;;;;;;;;;;;14.60;99.90;;;;;;6078398;23;20268;-75
2022/10/31 15:08:56;;;;;;;;;;;14.60;99.90;;;;;;6080164;23;19913;-80
2022/10/31 15:11:42;;;;;;;;;;;14.50;99.90;;;;;;6079409;23;19913;-81
2022/10/31 15:14:36;;;;;;;;;;;14.50;99.90;;;;;;6079382;23;19913;-79
2022/10/31 15:17:06;;;;;;;;;;;14.50;99.90;;;;;;6078855;23;19913;-79
2022/10/31 15:19:45;;;;;;;;;;;14.50;99.90;;;;;;6078486;23;20304;-80
2022/10/31 15:22:46;;;;;;;;;;;14.50;99.90;;;;;;6105308;23;20209;-81
2022/10/31 15:25:17;;;;;;;;;;;14.60;99.90;;;;;;6070420;23;19965;-80
2022/10/31 15:28:00;;;;;;;;;;;14.40;99.90;;;;;;6063996;23;19945;-78
2022/10/31 15:34:03;;;;;;;;;;;;;;;;;;;;;
2022/10/31 15:37:24;;;;;;;;;;;14.30;99.90;;;;;;6133236;23;20051;-81
2022/10/31 15:40:06;;;;;;;;;;;14.20;99.90;;;;;;6105798;23;19919;-81
2022/10/31 15:42:43;;;;;;;;;;;14.20;99.90;;;;;;6100414;23;19920;-80
2022/10/31 15:45:47;;;;;;;;;;;14.20;99.90;;;;;;6096759;23;19917;-80
2022/10/31 15:48:31;;;;;;;;;;;14.20;99.90;;;;;;6125514;23;20308;-80
2022/10/31 15:51:20;;;;;;;;;;;14.20;99.90;;;;;;6107028;23;20316;-80
2022/10/31 16:08:00;;;;;;;;;;;;;;;;;;;;;
2022/10/31 16:11:09;;;;;;;;;;;13.90;99.90;;;;;;6156167;23;19912;-80
2022/10/31 16:13:36;;;;;;;;;;;13.80;99.90;;;;;;6106441;23;19987;-78
2022/10/31 16:16:04;;;;;;;;;;;13.80;99.90;;;;;;6106187;23;19919;-76
2022/10/31 16:18:34;;;;;;;;;;;13.90;99.90;;;;;;6106770;23;19913;-77
2022/10/31 16:21:00;;;;;;;;;;;13.90;99.90;;;;;;6106539;23;19985;-77
2022/10/31 16:23:27;;;;;;;;;;;13.80;99.90;;;;;;6131012;23;19913;-77
2022/10/31 16:58:02;;;;;;;;;;;13.80;99.90;;;;;;6186824;23;20484;-81
2022/10/31 17:04:37;;;;;;;;;;;13.70;99.90;;;;;;6066294;23;19965;-80
2022/10/31 17:07:06;;;;;;;;;;;13.80;99.90;;;;;;6031712;23;19939;-78
2022/10/31 17:22:52;;;;;;;;;;;13.60;99.90;;;;;;6011621;23;20230;-79
2022/10/31 17:42:19;;;;;;;;;;;13.70;99.90;;;;;;6164239;23;20271;-78
2022/10/31 17:48:11;;;;;;;;;;;13.80;99.90;;;;;;6185769;23;19917;-73
2022/10/31 17:50:42;;;;;;;;;;;13.70;99.90;;;;;;6135348;23;19912;-78
2022/10/31 17:53:08;;;;;;;;;;;13.70;99.90;;;;;;6159721;23;20330;-73
2022/10/31 17:55:33;;;;;;;;;;;13.70;99.90;;;;;;6159198;23;19920;-73
2022/10/31 17:57:59;;;;;;;;;;;13.70;99.90;;;;;;6135111;23;19920;-73
2022/10/31 18:00:25;;;;;;;;;;;13.60;99.90;;;;;;6159377;23;20339;-74
2022/10/31 18:02:51;;;;;;;;;;;13.70;99.90;;;;;;6159867;23;19956;-73
2022/10/31 18:05:16;;;;;;;;;;;13.80;99.90;;;;;;6134450;23;19979;-73
2022/10/31 18:07:42;;;;;;;;;;;13.70;99.90;;;;;;6159758;23;19923;-72
2022/10/31 18:10:08;;;;;;;;;;;13.70;99.90;;;;;;6159690;23;19952;-72
2022/10/31 18:12:35;;;;;;;;;;;13.70;99.90;;;;;;6135634;23;19923;-73
2022/10/31 18:15:00;;;;;;;;;;;13.70;99.90;;;;;;6135569;23;19916;-72
2022/10/31 18:17:26;;;;;;;;;;;13.70;99.90;;;;;;6135318;23;20030;-73
2022/10/31 18:19:51;;;;;;;;;;;13.70;99.90;;;;;;6135137;23;19912;-73
2022/10/31 18:22:17;;;;;;;;;;;13.70;99.90;;;;;;6160611;23;19939;-74
2022/10/31 18:24:43;;;;;;;;;;;13.80;99.90;;;;;;6160122;23;19936;-75
2022/10/31 18:27:08;;;;;;;;;;;13.80;99.90;;;;;;6159488;23;19963;-75
2022/10/31 18:29:34;;;;;;;;;;;13.80;99.90;;;;;;6160081;23;19995;-74
2022/10/31 18:32:00;;;;;;;;;;;13.80;99.90;;;;;;6135228;23;19935;-72
2022/10/31 18:34:25;;;;;;;;;;;13.80;99.90;;;;;;6135169;23;19912;-73
2022/10/31 18:36:51;;;;;;;;;;;13.70;99.90;;;;;;6160102;23;19913;-72
2022/10/31 18:39:17;;;;;;;;;;;13.70;99.90;;;;;;6135193;23;19916;-73
2022/10/31 18:41:42;;;;;;;;;;;13.70;99.90;;;;;;6159335;23;19912;-72
2022/10/31 18:44:08;;;;;;;;;;;13.60;99.90;;;;;;6135477;23;19916;-72
2022/10/31 18:46:34;;;;;;;;;;;13.70;99.90;;;;;;6134912;23;19948;-73
2022/10/31 18:49:00;;;;;;;;;;;13.70;99.90;;;;;;6159587;23;19917;-76
2022/10/31 18:51:26;;;;;;;;;;;13.70;99.90;;;;;;6135316;23;19919;-73
2022/10/31 18:53:52;;;;;;;;;;;13.80;99.90;;;;;;6135319;23;19919;-73
2022/10/31 18:56:18;;;;;;;;;;;13.70;99.90;;;;;;6136432;23;19918;-73
2022/10/31 18:58:44;;;;;;;;;;;13.80;99.90;;;;;;6137044;23;19986;-72
2022/10/31 19:01:10;;;;;;;;;;;13.80;99.90;;;;;;6161806;23;19912;-74
2022/10/31 19:03:36;;;;;;;;;;;13.70;99.90;;;;;;6137008;23;19916;-73
2022/10/31 19:06:03;;;;;;;;;;;13.80;99.90;;;;;;6137018;23;19963;-72
2022/10/31 19:08:29;;;;;;;;;;;13.80;99.90;;;;;;6136512;23;19917;-73
2022/10/31 19:10:54;;;;;;;;;;;13.80;99.90;;;;;;6136624;23;20338;-72
2022/10/31 19:13:20;;;;;;;;;;;13.80;99.90;;;;;;6136861;23;19912;-74
2022/10/31 19:15:46;;;;;;;;;;;13.80;99.90;;;;;;6137042;23;20373;-74
2022/10/31 19:18:12;;;;;;;;;;;13.80;99.90;;;;;;6161619;23;19987;-73
2022/10/31 19:20:38;;;;;;;;;;;13.70;99.90;;;;;;6137142;23;19987;-74
2022/10/31 19:23:04;;;;;;;;;;;13.70;99.90;;;;;;6136171;23;19912;-74
2022/10/31 19:25:29;;;;;;;;;;;13.70;99.90;;;;;;6136565;23;19912;-72
2022/10/31 19:27:56;;;;;;;;;;;13.70;99.90;;;;;;6161174;23;19920;-73
2022/10/31 19:30:22;;;;;;;;;;;13.70;99.90;;;;;;6161291;23;19947;-74
2022/10/31 19:32:52;;;;;;;;;;;13.70;99.90;;;;;;6136525;23;20208;-74
2022/10/31 19:35:18;;;;;;;;;;;13.70;99.90;;;;;;6160809;23;19961;-73
2022/10/31 19:37:43;;;;;;;;;;;13.70;99.90;;;;;;6136498;23;19912;-73
2022/10/31 19:40:09;;;;;;;;;;;13.70;99.90;;;;;;6160693;23;19948;-73
2022/10/31 19:42:35;;;;;;;;;;;13.70;99.90;;;;;;6136109;23;20335;-74
2022/10/31 19:45:00;;;;;;;;;;;13.60;99.90;;;;;;6161253;23;19932;-75
2022/10/31 19:47:26;;;;;;;;;;;13.60;99.90;;;;;;6161174;23;19916;-74
2022/10/31 19:49:52;;;;;;;;;;;13.60;99.90;;;;;;6161067;23;19987;-76
2022/10/31 19:52:17;;;;;;;;;;;13.60;99.90;;;;;;6160813;23;19912;-73
2022/10/31 19:54:43;;;;;;;;;;;13.70;99.90;;;;;;6136786;23;19919;-73
2022/10/31 19:57:09;;;;;;;;;;;13.70;99.90;;;;;;6161742;23;19919;-74
2022/10/31 19:59:34;;;;;;;;;;;13.70;99.90;;;;;;6161999;23;19919;-77
2022/10/31 20:02:00;;;;;;;;;;;13.60;99.90;;;;;;6141333;23;19967;-71
2022/10/31 20:04:26;;;;;;;;;;;13.50;99.90;;;;;;6138773;23;19912;-71
2022/10/31 20:06:54;;;;;;;;;;;13.50;99.90;;;;;;6186791;23;19928;-74
2022/10/31 20:09:19;;;;;;;;;;;13.50;99.90;;;;;;6137685;23;19939;-74
2022/10/31 20:11:45;;;;;;;;;;;13.40;99.90;;;;;;6180096;23;20269;-74
2022/10/31 20:14:12;;;;;;;;;;;13.50;99.90;;;;;;6136371;23;19948;-73
2022/10/31 20:16:37;;;;;;;;;;;13.40;99.90;;;;;;6136218;23;19947;-72
2022/10/31 20:19:03;;;;;;;;;;;13.40;99.90;;;;;;6160407;23;19975;-75
2022/10/31 20:21:30;;;;;;;;;;;13.50;99.90;;;;;;6136194;23;19983;-74
2022/10/31 20:23:56;;;;;;;;;;;13.40;99.90;;;;;;6135651;23;19919;-72
2022/10/31 20:26:22;;;;;;;;;;;13.40;99.90;;;;;;6160912;23;20223;-72
2022/10/31 20:28:53;;;;;;;;;;;13.40;99.90;;;;;;6158653;23;19952;-78
2022/10/31 20:31:23;;;;;;;;;;;13.40;99.90;;;;;;6135750;23;19990;-78
2022/10/31 20:33:52;;;;;;;;;;;13.40;99.90;;;;;;6136261;23;20004;-78
2022/10/31 20:36:21;;;;;;;;;;;13.30;99.90;;;;;;6135979;23;20334;-77
2022/10/31 20:39:11;;;;;;;;;;;13.30;99.90;;;;;;6135457;23;19923;-77
2022/10/31 20:45:36;;;;;;;;;;;13.20;99.90;;;;;;6159350;23;19916;-78
2022/10/31 20:48:04;;;;;;;;;;;13.10;99.90;;;;;;6135461;23;20025;-78
2022/10/31 20:50:47;;;;;;;;;;;13.10;99.90;;;;;;6157957;23;20252;-77
2022/10/31 20:53:32;;;;;;;;;;;13.10;99.90;;;;;;6135441;23;19963;-78
2022/10/31 20:56:08;;;;;;;;;;;13.10;99.90;;;;;;6130980;23;19912;-77
2022/10/31 20:58:43;;;;;;;;;;;13.00;99.90;;;;;;6136170;23;19919;-80
2022/10/31 21:01:34;;;;;;;;;;;13.00;99.90;;;;;;6134958;23;19916;-76
2022/10/31 21:04:08;;;;;;;;;;;13.00;99.90;;;;;;6117874;23;19970;-78
2022/10/31 21:06:48;;;;;;;;;;;13.10;99.90;;;;;;6136778;23;19916;-78
2022/10/31 21:09:20;;;;;;;;;;;13.00;99.90;;;;;;6159598;23;19991;-79
2022/10/31 21:11:52;;;;;;;;;;;13.00;99.90;;;;;;6134554;23;19912;-80
2022/10/31 21:14:20;;;;;;;;;;;13.00;99.90;;;;;;6134450;23;19916;-79